createdAt,value
2019-03-01T00:02:07.424Z,12.30
2019-03-01T00:05:23.338Z,12.40
2019-03-01T00:08:50.060Z,12.40
2019-03-01T00:11:45.299Z,12.40
2019-03-01T00:14:55.062Z,12.40
2019-03-01T00:17:59.803Z,12.30
2019-03-01T00:21:30.633Z,12.30
2019-03-01T00:24:46.654Z,12.50
2019-03-01T00:27:58.174Z,12.60
2019-03-01T00:31:35.287Z,12.80
2019-03-01T00:35:11.063Z,12.60
2019-03-01T00:38:42.579Z,12.50
2019-03-01T00:41:45.922Z,12.50
2019-03-01T00:44:51.823Z,12.40
2019-03-01T00:47:34.514Z,12.40
2019-03-01T00:50:20.680Z,12.40
2019-03-01T00:53:02.435Z,12.50
2019-03-01T00:55:40.782Z,12.70
2019-03-01T00:58:19.095Z,12.90
2019-03-01T01:01:04.247Z,12.70
2019-03-01T01:03:46.000Z,12.70
2019-03-01T01:06:24.847Z,12.60
2019-03-01T01:09:06.634Z,12.60
2019-03-01T01:11:51.001Z,12.70
2019-03-01T01:14:32.089Z,12.60
2019-03-01T01:17:11.822Z,12.60
2019-03-01T01:19:55.457Z,12.70
2019-03-01T01:22:36.253Z,12.90
2019-03-01T01:25:20.535Z,12.90
2019-03-01T01:27:58.819Z,12.70
2019-03-01T01:30:39.300Z,12.70
2019-03-01T01:33:19.428Z,12.80
2019-03-01T01:35:59.686Z,12.90
2019-03-01T01:38:41.853Z,12.90
2019-03-01T01:41:22.205Z,12.80
2019-03-01T01:44:03.067Z,12.70
2019-03-01T01:46:50.838Z,12.80
2019-03-01T01:49:33.087Z,12.70
2019-03-01T01:52:14.671Z,12.70
2019-03-01T01:54:58.433Z,12.70
2019-03-01T01:57:40.325Z,12.70
2019-03-01T02:00:21.435Z,12.60
2019-03-01T02:03:01.447Z,12.80
2019-03-01T02:05:46.826Z,12.70
2019-03-01T02:08:28.131Z,12.80
2019-03-01T02:11:11.308Z,12.80
2019-03-01T02:13:52.706Z,13.00
2019-03-01T02:16:34.062Z,12.90
2019-03-01T02:19:16.950Z,13.00
2019-03-01T02:22:01.388Z,13.20
2019-03-01T02:24:48.179Z,13.20
2019-03-01T02:27:40.845Z,13.20
2019-03-01T02:30:30.063Z,13.00
2019-03-01T02:33:14.575Z,12.90
2019-03-01T02:35:59.805Z,12.90
2019-03-01T02:38:43.947Z,12.80
2019-03-01T02:41:23.493Z,12.90
2019-03-01T02:44:05.137Z,13.20
2019-03-01T02:46:52.172Z,13.10
2019-03-01T02:49:32.826Z,13.10
2019-03-01T02:52:14.110Z,13.20
2019-03-01T02:54:55.361Z,13.00
2019-03-01T02:57:35.872Z,12.90
2019-03-01T03:00:21.647Z,12.80
2019-03-01T03:03:07.055Z,12.90
2019-03-01T03:06:00.996Z,12.80
2019-03-01T03:08:44.373Z,12.80
2019-03-01T03:11:27.892Z,12.80
2019-03-01T03:14:18.243Z,12.70
2019-03-01T03:17:05.504Z,12.70
2019-03-01T03:19:48.475Z,12.60
2019-03-01T03:22:35.842Z,12.60
2019-03-01T03:25:16.631Z,12.60
2019-03-01T03:27:57.765Z,12.60
2019-03-01T03:30:43.837Z,12.70
2019-03-01T03:33:25.125Z,12.80
2019-03-01T03:36:05.686Z,12.80
2019-03-01T03:38:48.141Z,12.80
2019-03-01T03:41:25.868Z,12.80
2019-03-01T03:44:04.651Z,12.70
2019-03-01T03:46:51.376Z,12.70
2019-03-01T03:49:33.792Z,12.70
2019-03-01T03:52:24.212Z,12.70
2019-03-01T03:55:09.516Z,12.60
2019-03-01T03:57:53.336Z,12.70
2019-03-01T04:00:32.659Z,12.70
2019-03-01T04:03:15.907Z,12.60
2019-03-01T04:05:57.461Z,12.70
2019-03-01T04:08:43.087Z,12.80
2019-03-01T04:11:25.009Z,12.80
2019-03-01T04:14:05.980Z,12.70
2019-03-01T04:16:47.049Z,12.70
2019-03-01T04:19:29.213Z,12.70
2019-03-01T04:22:18.995Z,12.70
2019-03-01T04:25:03.584Z,12.60
2019-03-01T04:27:45.614Z,12.60
2019-03-01T04:30:31.537Z,12.60
2019-03-01T04:33:10.885Z,12.60
2019-03-01T04:36:01.409Z,12.70
2019-03-01T04:38:45.711Z,12.60
2019-03-01T04:41:44.252Z,12.60
2019-03-01T04:44:32.716Z,12.60
2019-03-01T04:47:20.291Z,12.60
2019-03-01T04:50:03.116Z,12.60
2019-03-01T04:52:54.176Z,12.50
2019-03-01T04:55:47.633Z,12.50
2019-03-01T04:58:38.074Z,12.50
2019-03-01T05:01:25.337Z,12.60
2019-03-01T05:04:15.629Z,12.60
2019-03-01T05:07:03.660Z,12.60
2019-03-01T05:10:01.653Z,12.60
2019-03-01T05:12:45.118Z,12.60
2019-03-01T05:15:33.682Z,12.60
2019-03-01T05:18:33.404Z,12.60
2019-03-01T05:21:13.318Z,12.70
2019-03-01T05:24:05.184Z,12.70
2019-03-01T05:27:03.330Z,12.60
2019-03-01T05:30:03.812Z,12.70
2019-03-01T05:32:48.438Z,12.60
2019-03-01T05:35:28.771Z,12.50
2019-03-01T05:38:21.483Z,12.50
2019-03-01T05:40:55.792Z,12.50
2019-03-01T05:44:02.260Z,12.50
2019-03-01T05:46:45.269Z,12.40
2019-03-01T05:49:29.387Z,12.50
2019-03-01T05:52:15.605Z,12.40
2019-03-01T05:55:03.512Z,12.40
2019-03-01T05:58:18.128Z,12.50
2019-03-01T06:04:35.336Z,12.70
2019-03-01T06:08:02.644Z,12.60
2019-03-01T06:11:41.353Z,12.50
2019-03-01T06:15:07.131Z,12.50
2019-03-01T06:18:50.473Z,12.50
2019-03-01T06:22:08.546Z,12.50
2019-03-01T06:25:21.120Z,12.50
2019-03-01T06:28:28.062Z,12.60
2019-03-01T06:31:50.252Z,12.70
2019-03-01T06:35:14.347Z,12.70
2019-03-01T06:39:27.165Z,12.70
2019-03-01T06:42:26.898Z,12.70
2019-03-01T06:45:41.739Z,12.60
2019-03-01T06:48:46.776Z,12.60
2019-03-01T06:51:36.611Z,12.70
2019-03-01T06:54:28.805Z,12.60
2019-03-01T06:57:09.931Z,12.60
2019-03-01T07:00:00.911Z,12.60
2019-03-01T07:02:45.965Z,12.60
2019-03-01T07:05:45.711Z,12.60
2019-03-01T07:08:33.990Z,12.60
2019-03-01T07:11:19.223Z,12.70
2019-03-01T07:14:09.028Z,12.70
2019-03-01T07:16:52.233Z,13.00
2019-03-01T07:19:40.005Z,13.10
2019-03-01T07:22:27.495Z,13.00
2019-03-01T07:25:33.338Z,13.00
2019-03-01T07:28:20.719Z,13.00
2019-03-01T07:31:19.513Z,12.80
2019-03-01T07:34:12.086Z,12.80
2019-03-01T07:36:57.659Z,12.80
2019-03-01T07:39:45.796Z,12.90
2019-03-01T07:42:28.374Z,12.90
2019-03-01T07:45:16.446Z,12.80
2019-03-01T07:47:59.126Z,12.80
2019-03-01T07:50:45.595Z,12.80
2019-03-01T07:53:35.675Z,12.70
2019-03-01T07:56:15.604Z,12.60
2019-03-01T07:59:11.070Z,12.60
2019-03-01T08:01:51.371Z,12.60
2019-03-01T08:04:32.381Z,12.60
2019-03-01T08:07:14.904Z,12.60
2019-03-01T08:09:57.816Z,12.60
2019-03-01T08:12:42.404Z,12.60
2019-03-01T08:15:19.901Z,12.50
2019-03-01T08:18:00.446Z,12.50
2019-03-01T08:20:42.175Z,12.50
2019-03-01T08:23:27.885Z,12.50
2019-03-01T08:26:17.805Z,12.60
2019-03-01T08:29:02.123Z,12.50
2019-03-01T08:31:44.951Z,12.50
2019-03-01T08:34:30.993Z,12.50
2019-03-01T08:37:17.671Z,12.50
2019-03-01T08:40:03.188Z,12.50
2019-03-01T08:43:02.706Z,12.50
2019-03-01T08:45:42.627Z,12.60
2019-03-01T08:48:26.458Z,12.50
2019-03-01T08:51:17.103Z,12.50
2019-03-01T08:54:03.168Z,12.60
2019-03-01T08:56:50.189Z,12.60
2019-03-01T08:59:36.258Z,12.60
2019-03-01T09:02:18.720Z,12.50
2019-03-01T09:05:05.290Z,12.50
2019-03-01T09:08:06.049Z,12.50
2019-03-01T09:10:52.353Z,12.50
2019-03-01T09:13:47.225Z,12.40
2019-03-01T09:16:30.685Z,12.50
2019-03-01T09:19:14.240Z,12.50
2019-03-01T09:21:58.492Z,12.50
2019-03-01T09:24:41.514Z,12.50
2019-03-01T09:27:26.836Z,12.50
2019-03-01T09:30:13.336Z,12.40
2019-03-01T09:33:12.927Z,12.50
2019-03-01T09:36:26.544Z,12.70
2019-03-01T09:39:18.025Z,12.70
2019-03-01T09:42:06.138Z,12.70
2019-03-01T09:44:43.627Z,12.60
2019-03-01T09:47:33.556Z,12.50
2019-03-01T09:50:13.893Z,12.60
2019-03-01T09:52:58.959Z,12.60
2019-03-01T09:55:38.448Z,12.60
2019-03-01T09:58:20.443Z,12.50
2019-03-01T10:01:08.289Z,12.50
2019-03-01T10:03:50.178Z,12.50
2019-03-01T10:06:38.302Z,12.60
2019-03-01T10:09:36.592Z,12.60
2019-03-01T10:12:20.131Z,12.60
2019-03-01T10:15:06.874Z,12.60
2019-03-01T10:17:50.262Z,12.60
2019-03-01T10:20:35.476Z,12.60
2019-03-01T10:23:17.996Z,12.60
2019-03-01T10:26:00.561Z,12.50
2019-03-01T10:28:46.694Z,12.50
2019-03-01T10:31:27.130Z,12.50
2019-03-01T10:34:11.741Z,12.40
2019-03-01T10:36:59.780Z,12.50
2019-03-01T10:39:41.529Z,12.50
2019-03-01T10:42:22.555Z,12.40
2019-03-01T10:45:27.204Z,12.40
2019-03-01T10:48:13.740Z,12.50
2019-03-01T10:51:01.672Z,12.50
2019-03-01T10:53:44.015Z,12.50
2019-03-01T10:56:29.547Z,12.50
2019-03-01T10:59:11.485Z,12.50
2019-03-01T11:02:01.912Z,12.50
2019-03-01T11:04:53.865Z,12.40
2019-03-01T11:07:34.201Z,12.50
2019-03-01T11:10:19.763Z,12.50
2019-03-01T11:13:04.168Z,12.40
2019-03-01T11:15:47.736Z,12.50
2019-03-01T11:18:34.360Z,12.50
2019-03-01T11:21:22.692Z,12.50
2019-03-01T11:24:16.133Z,12.40
2019-03-01T11:27:12.716Z,12.30
2019-03-01T11:30:13.686Z,12.40
2019-03-01T11:33:05.502Z,12.50
2019-03-01T11:35:50.449Z,12.40
2019-03-01T11:38:36.166Z,12.40
2019-03-01T11:41:19.082Z,12.40
2019-03-01T11:44:06.827Z,12.50
2019-03-01T11:47:08.669Z,12.50
2019-03-01T11:49:51.048Z,12.50
2019-03-01T11:52:40.232Z,12.50
2019-03-01T11:55:32.587Z,12.50
2019-03-01T11:58:36.862Z,12.40
2019-03-01T12:01:28.666Z,12.30
2019-03-01T12:04:10.959Z,12.40
2019-03-01T12:06:58.529Z,12.50
2019-03-01T12:10:12.364Z,12.60
2019-03-01T12:13:02.188Z,12.70
2019-03-01T12:19:05.844Z,12.80
2019-03-01T12:21:56.210Z,12.70
2019-03-01T12:28:04.587Z,12.60
2019-03-01T12:31:12.126Z,12.50
2019-03-01T12:34:12.846Z,12.50
2019-03-01T12:37:02.116Z,12.50
2019-03-01T12:39:57.691Z,12.50
2019-03-01T12:43:00.887Z,12.40
2019-03-01T12:45:49.874Z,12.40
2019-03-01T12:48:38.991Z,12.40
2019-03-01T12:51:47.417Z,12.40
2019-03-01T12:54:53.472Z,12.40
2019-03-01T12:57:46.398Z,12.40
2019-03-01T13:00:52.357Z,12.40
2019-03-01T13:04:11.458Z,12.40
2019-03-01T13:07:10.528Z,12.40
2019-03-01T13:10:28.462Z,12.40
2019-03-01T13:13:55.887Z,12.40
2019-03-01T13:17:02.683Z,12.40
2019-03-01T13:20:09.987Z,12.30
2019-03-01T13:23:05.010Z,12.30
2019-03-01T13:25:52.599Z,12.30
2019-03-01T13:28:55.872Z,12.30
2019-03-01T13:31:58.180Z,12.30
2019-03-01T13:34:59.955Z,12.40
2019-03-01T13:37:56.915Z,12.40
2019-03-01T13:41:01.703Z,12.30
2019-03-01T13:43:48.722Z,12.30
2019-03-01T13:46:54.048Z,12.30
2019-03-01T13:50:17.693Z,12.30
2019-03-01T13:53:30.221Z,12.20
2019-03-01T13:56:38.663Z,12.20
2019-03-01T13:59:37.562Z,12.20
2019-03-01T14:02:26.984Z,12.20
2019-03-01T14:05:55.852Z,12.20
2019-03-01T14:09:17.169Z,12.20
2019-03-01T14:12:48.076Z,12.20
2019-03-01T14:16:09.589Z,12.20
2019-03-01T14:18:58.259Z,12.20
2019-03-01T14:22:13.824Z,12.20
2019-03-01T14:25:16.124Z,12.20
2019-03-01T14:28:22.035Z,12.20
2019-03-01T14:31:21.203Z,12.30
2019-03-01T14:34:23.912Z,12.30
2019-03-01T14:37:21.616Z,12.30
2019-03-01T14:40:24.366Z,12.30
2019-03-01T14:43:15.900Z,12.30
2019-03-01T14:46:05.658Z,12.30
2019-03-01T14:49:12.060Z,12.30
2019-03-01T14:52:56.889Z,12.30
2019-03-01T14:56:26.391Z,12.30
2019-03-01T15:00:05.682Z,12.30
2019-03-01T15:03:22.861Z,12.30
2019-03-01T15:06:44.753Z,12.30
2019-03-01T15:09:45.676Z,12.30
2019-03-01T15:13:07.312Z,12.20
2019-03-01T15:16:22.357Z,12.20
2019-03-01T15:19:37.745Z,12.30
2019-03-01T15:22:56.587Z,12.30
2019-03-01T15:26:09.671Z,12.30
2019-03-01T15:29:35.927Z,12.30
2019-03-01T15:32:44.935Z,12.30
2019-03-01T15:36:19.082Z,12.20
2019-03-01T15:39:23.449Z,12.20
2019-03-01T15:42:23.674Z,12.20
2019-03-01T15:45:45.514Z,12.20
2019-03-01T15:49:00.986Z,12.20
2019-03-01T15:52:10.627Z,12.20
2019-03-01T15:55:50.180Z,12.20
2019-03-01T15:59:10.437Z,12.20
2019-03-01T16:02:30.536Z,12.20
2019-03-01T16:05:27.639Z,12.20
2019-03-01T16:08:31.575Z,12.20
2019-03-01T16:11:31.659Z,12.20
2019-03-01T16:14:25.018Z,12.30
2019-03-01T16:17:33.494Z,12.30
2019-03-01T16:20:39.160Z,12.30
2019-03-01T16:23:41.275Z,12.30
2019-03-01T16:26:48.578Z,12.30
2019-03-01T16:29:42.096Z,12.20
2019-03-01T16:33:02.941Z,12.30
2019-03-01T16:36:03.057Z,12.30
2019-03-01T16:39:07.567Z,12.30
2019-03-01T16:42:14.545Z,12.30
2019-03-01T16:45:06.070Z,12.30
2019-03-01T16:48:16.946Z,12.30
2019-03-01T16:51:07.810Z,12.30
2019-03-01T16:54:20.562Z,12.20
2019-03-01T16:57:15.032Z,12.20
2019-03-01T17:00:20.284Z,12.20
2019-03-01T17:03:23.035Z,12.20
2019-03-01T17:06:27.406Z,12.20
2019-03-01T17:09:25.319Z,12.30
2019-03-01T17:12:26.092Z,12.20
2019-03-01T17:15:15.159Z,12.20
2019-03-01T17:18:04.691Z,12.20
2019-03-01T17:21:05.568Z,12.20
2019-03-01T17:23:57.451Z,12.20
2019-03-01T17:26:49.851Z,12.20
2019-03-01T17:29:39.162Z,12.20
2019-03-01T17:32:34.220Z,12.20
2019-03-01T17:35:15.298Z,12.20
2019-03-01T17:37:57.159Z,12.20
2019-03-01T17:40:46.932Z,12.20
2019-03-01T17:43:35.506Z,12.20
2019-03-01T17:46:20.932Z,12.20
2019-03-01T17:49:14.090Z,12.20
2019-03-01T17:52:05.250Z,12.20
2019-03-01T17:54:49.399Z,12.20
2019-03-01T18:01:02.730Z,12.20
2019-03-01T18:04:01.886Z,12.10
2019-03-01T18:06:37.141Z,12.10
2019-03-01T18:09:19.973Z,12.10
2019-03-01T18:12:06.000Z,12.10
2019-03-01T18:14:48.505Z,12.10
2019-03-01T18:17:29.060Z,12.10
2019-03-01T18:20:10.863Z,12.10
2019-03-01T18:22:53.184Z,12.10
2019-03-01T18:25:36.996Z,12.10
2019-03-01T18:28:19.184Z,12.10
2019-03-01T18:30:59.445Z,12.10
2019-03-01T18:33:42.646Z,12.10
2019-03-01T18:36:28.203Z,12.10
2019-03-01T18:39:09.200Z,12.10
2019-03-01T18:41:51.209Z,12.10
2019-03-01T18:44:40.801Z,12.10
2019-03-01T18:47:24.184Z,12.10
2019-03-01T18:50:06.501Z,12.10
2019-03-01T18:53:03.762Z,12.10
2019-03-01T18:55:52.857Z,12.10
2019-03-01T18:58:30.539Z,12.10
2019-03-01T19:01:20.803Z,12.10
2019-03-01T19:04:02.493Z,12.10
2019-03-01T19:06:48.519Z,12.10
2019-03-01T19:09:39.402Z,12.10
2019-03-01T19:12:54.759Z,12.20
2019-03-01T19:15:48.123Z,12.10
2019-03-01T19:18:43.540Z,12.10
2019-03-01T19:21:22.042Z,12.10
2019-03-01T19:24:08.050Z,12.10
2019-03-01T19:26:47.624Z,12.10
2019-03-01T19:29:30.467Z,12.10
2019-03-01T19:32:09.041Z,12.10
2019-03-01T19:34:53.620Z,12.10
2019-03-01T19:37:36.238Z,12.10
2019-03-01T19:40:18.966Z,12.10
2019-03-01T19:43:06.805Z,12.10
2019-03-01T19:45:45.871Z,12.10
2019-03-01T19:48:34.423Z,12.10
2019-03-01T19:51:13.354Z,12.10
2019-03-01T19:53:53.764Z,12.00
2019-03-01T19:56:36.736Z,12.00
2019-03-01T19:59:18.676Z,12.00
2019-03-01T20:01:59.469Z,12.00
2019-03-01T20:04:41.795Z,12.00
2019-03-01T20:07:22.919Z,12.00
2019-03-01T20:10:01.955Z,12.00
2019-03-01T20:12:43.939Z,12.00
2019-03-01T20:15:28.930Z,12.00
2019-03-01T20:18:09.916Z,12.00
2019-03-01T20:20:48.552Z,12.10
2019-03-01T20:23:30.749Z,12.10
2019-03-01T20:26:14.234Z,12.10
2019-03-01T20:28:57.060Z,12.00
2019-03-01T20:31:42.143Z,12.10
2019-03-01T20:34:24.799Z,12.10
2019-03-01T20:40:03.239Z,12.10
2019-03-01T20:42:44.414Z,12.10
2019-03-01T20:45:31.456Z,12.10
2019-03-01T20:48:13.021Z,12.10
2019-03-01T20:50:56.515Z,12.10
2019-03-01T20:53:39.209Z,12.10
2019-03-01T20:56:20.827Z,12.10
2019-03-01T20:59:04.609Z,12.10
2019-03-01T21:01:48.453Z,12.10
2019-03-01T21:04:30.300Z,12.10
2019-03-01T21:07:08.725Z,12.10
2019-03-01T21:09:51.336Z,12.00
2019-03-01T21:12:36.704Z,12.00
2019-03-01T21:15:19.070Z,12.00
2019-03-01T21:18:01.409Z,12.00
2019-03-01T21:20:39.991Z,12.00
2019-03-01T21:23:21.206Z,12.00
2019-03-01T21:25:59.416Z,12.00
2019-03-01T21:28:41.783Z,12.00
2019-03-01T21:31:22.817Z,12.00
2019-03-01T21:34:03.684Z,12.00
2019-03-01T21:36:43.361Z,12.10
2019-03-01T21:39:24.164Z,12.10
2019-03-01T21:42:06.468Z,12.10
2019-03-01T21:44:48.723Z,12.10
2019-03-01T21:47:28.514Z,12.10
2019-03-01T21:50:08.657Z,12.10
2019-03-01T21:52:51.272Z,12.10
2019-03-01T21:55:30.917Z,12.10
2019-03-01T21:58:13.079Z,12.00
2019-03-01T22:00:54.012Z,12.00
2019-03-01T22:03:40.636Z,12.10
2019-03-01T22:06:24.738Z,12.10
2019-03-01T22:09:08.776Z,12.10
2019-03-01T22:11:52.127Z,12.20
2019-03-01T22:14:31.670Z,12.20
2019-03-01T22:17:10.456Z,12.10
2019-03-01T22:19:52.883Z,12.20
2019-03-01T22:22:37.512Z,12.20
2019-03-01T22:25:15.796Z,12.20
2019-03-01T22:28:01.096Z,12.20
2019-03-01T22:30:38.657Z,12.20
2019-03-01T22:33:20.779Z,12.20
2019-03-01T22:36:05.599Z,12.20
2019-03-01T22:38:47.296Z,12.20
2019-03-01T22:41:27.573Z,12.10
2019-03-01T22:44:08.451Z,12.10
2019-03-01T22:46:49.877Z,12.10
2019-03-01T22:49:32.880Z,12.10
2019-03-01T22:52:16.965Z,12.10
2019-03-01T22:54:57.650Z,12.10
2019-03-01T22:57:41.776Z,12.10
2019-03-01T23:00:54.586Z,12.10
2019-03-01T23:03:35.937Z,12.10
2019-03-01T23:06:20.180Z,12.10
2019-03-01T23:09:00.519Z,12.20
2019-03-01T23:11:41.758Z,12.20
2019-03-01T23:14:22.056Z,12.30
2019-03-01T23:17:04.424Z,12.20
2019-03-01T23:19:47.751Z,12.20
2019-03-01T23:22:30.970Z,12.20
2019-03-01T23:25:10.789Z,12.20
2019-03-01T23:27:53.875Z,12.20
2019-03-01T23:30:36.905Z,12.40
2019-03-01T23:33:20.360Z,12.60
2019-03-01T23:36:00.935Z,12.70
2019-03-01T23:38:40.353Z,12.70
2019-03-01T23:41:22.105Z,12.70
2019-03-01T23:44:07.748Z,12.70
2019-03-01T23:46:49.970Z,12.70
2019-03-01T23:49:35.815Z,12.70
2019-03-01T23:52:19.527Z,12.90
2019-03-01T23:54:59.275Z,13.10
2019-03-01T23:57:41.041Z,13.10
